Time;durP1;ratioP1;P1;durP2;ratioP2;P2;SDS_P1;SDS_P2;PMS_P1;PMS_P2;Temp;Humidity;BMP_temperature;BMP_pressure;BME280_temperature;BME280_humidity;BME280_pressure;Samples;Min_cycle;Max_cycle;Signal;HPM_P1;HPM_P2
2021/07/14 00:00:30;;;;;;;7.45;3.50;;;;;;;20.72;nan;99822.56;5000283;28;20088;-82
2021/07/14 00:02:55;;;;;;;9.55;3.55;;;;;;;20.81;nan;99824.72;5014004;28;20041;-81
2021/07/14 00:05:22;;;;;;;10.45;3.42;;;;;;;20.93;nan;99839.19;5018106;28;20392;-82
2021/07/14 00:07:48;;;;;;;8.00;4.03;;;;;;;21.00;nan;99838.72;4967755;28;20503;-80
2021/07/14 00:10:27;;;;;;;12.10;4.80;;;;;;;21.00;nan;99837.88;4981002;28;20038;-81
2021/07/14 00:13:07;;;;;;;9.88;3.80;;;;;;;20.98;nan;99837.94;4979709;28;20497;-82
2021/07/14 00:23:35;;;;;;;8.95;4.03;;;;;;;21.37;nan;99844.53;4977457;28;20228;-82
2021/07/14 00:26:00;;;;;;;8.70;4.22;;;;;;;21.44;nan;99845.91;4992845;28;20045;-81
2021/07/14 00:28:26;;;;;;;8.90;4.72;;;;;;;21.50;nan;99847.34;4977342;28;20042;-81
2021/07/14 00:30:55;;;;;;;15.02;4.07;;;;;;;21.52;nan;99858.00;4995759;28;20026;-81
2021/07/14 00:33:21;;;;;;;8.85;3.50;;;;;;;21.49;nan;99859.06;5018726;28;20076;-81
2021/07/14 00:35:46;;;;;;;8.35;3.97;;;;;;;21.54;nan;99843.53;4997559;28;20038;-82
2021/07/14 00:38:12;;;;;;;7.80;3.65;;;;;;;21.49;nan;99836.72;4983997;28;20042;-80
2021/07/14 00:40:37;;;;;;;8.50;4.00;;;;;;;21.39;nan;99831.91;4998663;28;20046;-82
2021/07/14 00:43:04;;;;;;;8.27;3.65;;;;;;;21.38;nan;99846.31;4998878;28;20034;-81
2021/07/14 00:45:29;;;;;;;11.73;4.50;;;;;;;21.36;nan;99848.19;5015534;28;20133;-81
2021/07/14 00:47:57;;;;;;;7.55;4.00;;;;;;;21.43;nan;99852.25;4983395;28;20070;-81
2021/07/14 00:50:23;;;;;;;10.40;4.35;;;;;;;21.50;nan;99849.19;4999245;28;20034;-81
2021/07/14 00:52:49;;;;;;;7.90;3.75;;;;;;;21.56;nan;99838.94;4982537;28;20041;-81
2021/07/14 00:55:14;;;;;;;10.70;4.75;;;;;;;21.63;nan;99831.34;4982300;28;20041;-81
2021/07/14 00:57:40;;;;;;;9.75;4.07;;;;;;;21.60;nan;99840.44;4981963;28;20038;-81
2021/07/14 01:00:08;;;;;;;10.73;4.15;;;;;;;21.65;nan;99840.16;5016319;28;20040;-81
2021/07/14 01:02:33;;;;;;;9.80;3.85;;;;;;;21.71;nan;99837.09;5014663;28;20038;-81
2021/07/14 01:05:05;;;;;;;8.55;4.15;;;;;;;21.73;nan;99843.22;5016528;28;20041;-81
2021/07/14 01:07:37;;;;;;;10.70;4.25;;;;;;;21.77;nan;99835.81;4997866;28;20115;-82
2021/07/14 01:10:07;;;;;;;9.95;4.25;;;;;;;21.77;nan;99825.97;4998460;28;20436;-82
2021/07/14 01:12:47;;;;;;;10.68;3.95;;;;;;;21.71;nan;99838.91;5016038;28;20057;-82
2021/07/14 01:15:18;;;;;;;10.35;4.50;;;;;;;21.65;nan;99835.66;4977060;28;20058;-81
2021/07/14 01:17:57;;;;;;;8.45;4.40;;;;;;;21.58;nan;99831.63;5010282;28;20042;-82
2021/07/14 01:20:28;;;;;;;11.68;4.32;;;;;;;21.59;nan;99832.50;5014660;28;20447;-82
2021/07/14 01:23:07;;;;;;;10.35;3.83;;;;;;;21.58;nan;99833.44;5014802;28;20109;-82
2021/07/14 01:25:54;;;;;;;6.82;4.22;;;;;;;21.60;nan;99828.84;5009012;28;20038;-82
2021/07/14 01:28:25;;;;;;;9.35;4.18;;;;;;;21.61;nan;99831.47;5013272;28;20053;-81
2021/07/14 01:30:52;;;;;;;10.63;4.65;;;;;;;21.55;nan;99830.97;5012990;28;20061;-82
2021/07/14 01:33:22;;;;;;;8.27;4.45;;;;;;;21.48;nan;99825.09;5018135;28;20057;-82
2021/07/14 01:35:50;;;;;;;9.32;3.90;;;;;;;21.42;nan;99831.72;5016948;28;20066;-82
2021/07/14 01:38:19;;;;;;;10.63;4.30;;;;;;;21.29;nan;99830.72;4970742;28;20037;-82
2021/07/14 01:40:47;;;;;;;9.70;4.07;;;;;;;21.20;nan;99836.66;4998805;28;20131;-82
2021/07/14 01:43:13;;;;;;;7.78;3.58;;;;;;;21.13;nan;99829.94;4978290;28;20026;-81
2021/07/14 01:45:40;;;;;;;7.32;4.70;;;;;;;21.04;nan;99825.13;5000584;28;20046;-81
2021/07/14 01:48:09;;;;;;;9.30;4.47;;;;;;;20.94;nan;99832.88;4998598;28;20049;-81
2021/07/14 01:50:36;;;;;;;11.43;4.45;;;;;;;20.91;nan;99833.06;4980080;28;20412;-80
2021/07/14 01:53:02;;;;;;;8.20;4.30;;;;;;;20.80;nan;99828.31;5015630;28;20018;-81
2021/07/14 01:55:30;;;;;;;8.82;5.18;;;;;;;20.76;nan;99827.66;5018250;28;20034;-81
2021/07/14 01:57:58;;;;;;;8.65;4.18;;;;;;;20.75;nan;99834.00;5015641;28;20489;-81
2021/07/14 02:00:24;;;;;;;10.07;5.88;;;;;;;20.74;nan;99826.88;4985167;28;20055;-81
2021/07/14 02:05:32;;;;;;;7.70;4.50;;;;;;;20.53;nan;99815.56;5017237;28;20037;-81
2021/07/14 02:07:58;;;;;;;9.50;4.72;;;;;;;20.49;nan;99829.28;5017564;28;20300;-81
2021/07/14 02:10:24;;;;;;;6.88;4.45;;;;;;;20.40;nan;99830.66;5018962;28;20042;-81
2021/07/14 02:12:51;;;;;;;6.72;4.45;;;;;;;20.40;nan;99835.16;4985252;28;20038;-80
2021/07/14 02:15:16;;;;;;;11.43;5.55;;;;;;;20.40;nan;99841.38;5022489;28;20056;-81
2021/07/14 02:18:13;;;;;;;8.82;4.72;;;;;;;20.35;nan;99841.63;5019595;28;20643;-81
2021/07/14 02:20:39;;;;;;;10.05;4.88;;;;;;;20.36;nan;99850.56;5010966;28;20053;-81
2021/07/14 02:23:05;;;;;;;13.18;6.13;;;;;;;20.33;nan;99850.69;4979449;28;20018;-81
2021/07/14 02:25:32;;;;;;;7.93;5.95;;;;;;;20.20;nan;99855.03;5008823;28;20046;-81
2021/07/14 02:27:57;;;;;;;10.15;5.43;;;;;;;20.17;nan;99857.91;4999835;28;20034;-81
2021/07/14 02:30:23;;;;;;;10.43;5.43;;;;;;;20.11;nan;99862.66;5002700;28;20111;-80
2021/07/14 02:32:49;;;;;;;10.88;5.90;;;;;;;20.04;nan;99853.25;5003183;28;20448;-80
2021/07/14 02:35:15;;;;;;;9.60;6.68;;;;;;;20.07;nan;99854.88;4992044;28;20146;-81
2021/07/14 02:37:56;;;;;;;8.65;6.28;;;;;;;20.04;nan;99866.66;5001157;28;20044;-81
2021/07/14 02:40:34;;;;;;;7.80;5.80;;;;;;;19.93;nan;99882.41;4998967;28;20484;-80
2021/07/14 02:43:02;;;;;;;6.97;5.50;;;;;;;19.88;nan;99888.03;5017325;28;20078;-81
2021/07/14 02:45:29;;;;;;;10.25;6.28;;;;;;;19.85;nan;99890.88;5015751;28;20493;-82
2021/07/14 02:47:57;;;;;;;8.93;6.13;;;;;;;19.88;nan;99893.38;4998350;28;20069;-81
2021/07/14 02:50:25;;;;;;;10.02;6.18;;;;;;;19.88;nan;99889.84;5000067;28;20034;-81
2021/07/14 02:52:57;;;;;;;8.65;7.72;;;;;;;19.87;nan;99891.66;5017729;28;20033;-81
2021/07/14 02:55:30;;;;;;;9.90;7.20;;;;;;;19.86;nan;99889.09;5002620;28;20046;-81
2021/07/14 02:57:57;;;;;;;8.55;5.38;;;;;;;19.83;nan;99881.19;5014926;28;20121;-82
2021/07/14 03:00:25;;;;;;;6.40;5.43;;;;;;;19.76;nan;99872.66;5017640;28;20073;-81
2021/07/14 03:02:51;;;;;;;9.93;5.63;;;;;;;19.72;nan;99887.13;5002328;28;20519;-81
2021/07/14 03:05:17;;;;;;;10.85;7.13;;;;;;;19.73;nan;99869.25;4982072;28;20035;-80
2021/07/14 03:07:45;;;;;;;11.02;6.47;;;;;;;19.67;nan;99868.63;5016827;28;20115;-81
2021/07/14 03:10:13;;;;;;;9.98;8.05;;;;;;;19.68;nan;99865.03;4993526;28;20038;-81
2021/07/14 03:12:39;;;;;;;11.63;6.40;;;;;;;19.67;nan;99865.09;5017999;28;20076;-82
2021/07/14 03:15:08;;;;;;;8.27;5.95;;;;;;;19.65;nan;99870.53;4999134;28;20060;-81
2021/07/14 03:17:34;;;;;;;8.15;5.20;;;;;;;19.63;nan;99867.06;4998009;28;20034;-82
2021/07/14 03:20:04;;;;;;;15.43;6.93;;;;;;;19.62;nan;99875.16;5016124;28;20049;-81
2021/07/14 03:22:30;;;;;;;17.40;6.60;;;;;;;19.57;nan;99864.72;5014274;28;20034;-82
2021/07/14 03:24:56;;;;;;;9.63;5.80;;;;;;;19.56;nan;99864.78;4965959;28;20102;-82
2021/07/14 03:27:21;;;;;;;10.63;6.43;;;;;;;19.53;nan;99871.19;4996161;28;20057;-81
2021/07/14 03:29:49;;;;;;;9.10;6.68;;;;;;;19.57;nan;99886.13;5015699;28;20485;-82
2021/07/14 03:32:16;;;;;;;11.77;5.85;;;;;;;19.68;nan;99875.75;4997438;28;20500;-82
2021/07/14 03:34:41;;;;;;;11.15;5.63;;;;;;;19.77;nan;99873.50;5014386;28;20042;-81
2021/07/14 03:37:07;;;;;;;9.15;4.95;;;;;;;19.87;nan;99872.06;5016104;28;20097;-81
2021/07/14 03:39:36;;;;;;;9.75;4.85;;;;;;;19.98;nan;99877.69;5015226;28;20049;-81
2021/07/14 03:42:03;;;;;;;7.78;4.47;;;;;;;20.05;nan;99871.03;4998648;28;20034;-81
2021/07/14 03:44:28;;;;;;;10.10;4.65;;;;;;;20.08;nan;99872.69;4997438;28;20039;-81
2021/07/14 03:46:54;;;;;;;7.30;4.35;;;;;;;20.10;nan;99860.94;5016703;28;20107;-82
2021/07/14 03:49:20;;;;;;;8.55;4.85;;;;;;;20.10;nan;99860.94;5013413;28;20025;-81
2021/07/14 03:51:48;;;;;;;10.35;3.97;;;;;;;20.26;nan;99857.38;5012972;28;20037;-82
2021/07/14 03:54:14;;;;;;;10.98;4.57;;;;;;;20.31;nan;99863.34;5012975;28;20096;-82
2021/07/14 03:56:40;;;;;;;6.32;3.13;;;;;;;20.35;nan;99867.56;5013063;28;20124;-82
2021/07/14 03:59:05;;;;;;;7.55;3.42;;;;;;;20.37;nan;99865.66;5012515;28;20366;-81
2021/07/14 04:01:31;;;;;;;5.78;3.30;;;;;;;20.40;nan;99862.81;5012066;28;20061;-81
2021/07/14 04:03:57;;;;;;;6.47;3.17;;;;;;;20.40;nan;99868.16;5017026;28;20033;-81
2021/07/14 04:06:26;;;;;;;8.50;3.38;;;;;;;20.33;nan;99856.06;5012239;28;20065;-81
2021/07/14 04:09:20;;;;;;;7.05;3.08;;;;;;;20.35;nan;99856.84;5014819;28;20026;-80
2021/07/14 04:11:48;;;;;;;9.80;3.75;;;;;;;20.44;nan;99853.66;5012775;28;20047;-81
2021/07/14 04:14:13;;;;;;;7.57;3.70;;;;;;;20.52;nan;99861.25;5010667;28;20109;-80
2021/07/14 04:16:38;;;;;;;5.65;2.65;;;;;;;20.55;nan;99853.91;5008306;28;20030;-82
2021/07/14 04:19:04;;;;;;;6.75;3.38;;;;;;;20.53;nan;99853.09;5008324;28;20038;-81
2021/07/14 04:21:29;;;;;;;4.05;3.05;;;;;;;20.62;nan;99850.88;5007498;28;20056;-80
2021/07/14 04:23:56;;;;;;;6.88;3.97;;;;;;;20.63;nan;99853.47;5009504;28;20038;-81
2021/07/14 04:26:22;;;;;;;8.88;3.22;;;;;;;20.67;nan;99852.34;5010177;28;20048;-80
2021/07/14 04:28:47;;;;;;;5.88;2.72;;;;;;;20.62;nan;99851.75;5004238;28;20026;-79
2021/07/14 04:31:13;;;;;;;10.27;3.72;;;;;;;20.53;nan;99849.56;4991347;28;20030;-80
2021/07/14 04:33:41;;;;;;;5.50;3.50;;;;;;;20.54;nan;99854.88;4956776;28;20026;-81
2021/07/14 04:36:06;;;;;;;7.07;3.95;;;;;;;20.53;nan;99852.25;5005610;28;20029;-81
2021/07/14 04:38:32;;;;;;;5.47;2.95;;;;;;;20.62;nan;99843.72;4986741;28;20042;-79
2021/07/14 04:40:57;;;;;;;6.55;2.88;;;;;;;20.55;nan;99845.88;5006820;28;20053;-81
2021/07/14 04:43:22;;;;;;;9.07;2.90;;;;;;;20.69;nan;99853.09;5005451;28;20042;-81
2021/07/14 04:45:48;;;;;;;8.68;3.28;;;;;;;20.75;nan;99855.44;5010895;28;20038;-81
2021/07/14 04:48:13;;;;;;;7.47;2.40;;;;;;;20.74;nan;99859.06;4991986;28;20046;-81
2021/07/14 04:50:38;;;;;;;12.70;3.30;;;;;;;20.67;nan;99867.56;5012068;28;20057;-81
2021/07/14 04:53:03;;;;;;;6.22;2.90;;;;;;;20.71;nan;99879.84;5010622;28;20031;-81
2021/07/14 04:55:29;;;;;;;10.18;3.33;;;;;;;20.75;nan;99873.31;5013608;28;20033;-81
2021/07/14 04:57:54;;;;;;;6.25;2.67;;;;;;;20.84;nan;99867.44;5011290;28;20044;-81
2021/07/14 05:00:20;;;;;;;8.65;3.45;;;;;;;20.85;nan;99871.81;4979205;28;20400;-82
2021/07/14 05:02:46;;;;;;;8.45;3.78;;;;;;;20.84;nan;99879.97;5012628;28;20026;-82
2021/07/14 05:05:13;;;;;;;6.97;2.42;;;;;;;20.81;nan;99883.72;5010845;28;20349;-82
2021/07/14 05:07:38;;;;;;;4.88;2.55;;;;;;;20.79;nan;99885.59;4991405;28;20088;-81
2021/07/14 05:10:05;;;;;;;8.25;2.60;;;;;;;20.77;nan;99903.59;4992534;28;20481;-81
2021/07/14 05:12:30;;;;;;;8.57;3.08;;;;;;;20.73;nan;99910.13;4995343;28;20034;-81
2021/07/14 05:14:55;;;;;;;4.15;2.65;;;;;;;20.74;nan;99911.81;5009842;28;20045;-81
2021/07/14 05:17:21;;;;;;;5.47;2.72;;;;;;;20.72;nan;99911.03;4995272;28;20093;-81
2021/07/14 05:19:46;;;;;;;8.60;2.50;;;;;;;20.79;nan;99923.16;4993145;28;20038;-82
2021/07/14 05:22:13;;;;;;;10.25;3.13;;;;;;;20.80;nan;99924.88;5013323;28;20042;-82
2021/07/14 05:24:39;;;;;;;8.90;2.13;;;;;;;20.79;nan;99917.78;5009921;28;20064;-81
2021/07/14 05:27:04;;;;;;;9.32;2.28;;;;;;;20.75;nan;99929.63;5012317;28;20037;-81
2021/07/14 05:29:29;;;;;;;8.73;2.90;;;;;;;20.71;nan;99941.50;4991745;28;20038;-81
2021/07/14 05:31:55;;;;;;;7.07;2.10;;;;;;;20.76;nan;99942.97;4980220;28;20120;-81
2021/07/14 05:34:20;;;;;;;8.10;3.13;;;;;;;20.75;nan;99960.03;5011806;28;20088;-81
2021/07/14 05:36:46;;;;;;;10.20;2.92;;;;;;;20.67;nan;99966.75;4978205;28;20034;-82
2021/07/14 05:39:11;;;;;;;10.07;3.45;;;;;;;20.72;nan;99970.94;4995009;28;20040;-81
2021/07/14 05:41:36;;;;;;;5.28;2.47;;;;;;;20.74;nan;99984.22;5011827;28;20042;-82
2021/07/14 05:44:02;;;;;;;8.05;2.80;;;;;;;20.88;nan;99983.44;5012926;28;20250;-81
2021/07/14 05:46:27;;;;;;;6.85;3.13;;;;;;;21.04;nan;99975.34;5011285;28;20044;-81
2021/07/14 05:49:00;;;;;;;10.07;2.53;;;;;;;21.11;nan;99969.53;4992225;28;20583;-81
2021/07/14 05:51:32;;;;;;;5.10;2.10;;;;;;;21.23;nan;99978.72;5018551;28;20038;-81
2021/07/14 05:53:57;;;;;;;;;;;;;;;21.24;nan;99983.97;5017102;28;20038;-82
2021/07/14 05:56:23;;;;;;;5.47;1.85;;;;;;;21.32;nan;99980.81;5019123;28;19940;-80
2021/07/14 05:58:48;;;;;;;6.28;2.50;;;;;;;21.49;nan;99981.69;5014128;28;20065;-80
2021/07/14 06:01:14;;;;;;;9.55;2.42;;;;;;;21.49;nan;99976.34;5017238;28;20037;-80
2021/07/14 06:03:39;;;;;;;6.47;2.22;;;;;;;21.63;nan;99968.28;4996455;28;20037;-80
2021/07/14 06:06:04;;;;;;;4.00;1.70;;;;;;;21.90;nan;99960.34;5003078;28;20038;-79
2021/07/14 06:08:30;;;;;;;6.25;2.40;;;;;;;21.95;nan;99974.34;5006109;28;20062;-78
2021/07/14 06:10:55;;;;;;;3.55;2.13;;;;;;;22.20;nan;99968.34;4995350;28;20042;-79
2021/07/14 06:13:20;;;;;;;5.05;1.73;;;;;;;22.19;nan;99966.63;5011823;28;20036;-80
2021/07/14 06:15:46;;;;;;;6.28;1.95;;;;;;;22.10;nan;99957.28;5010188;28;20111;-79
2021/07/14 06:18:11;;;;;;;7.32;1.63;;;;;;;22.25;nan;99944.72;4997372;28;20030;-80
2021/07/14 06:20:37;;;;;;;5.57;1.92;;;;;;;22.35;nan;99926.19;5013300;28;20037;-80
2021/07/14 06:23:03;;;;;;;5.82;1.70;;;;;;;22.30;nan;99925.63;5016278;28;20039;-79
2021/07/14 06:25:28;;;;;;;5.53;1.80;;;;;;;22.37;nan;99920.69;5015925;28;20069;-79
2021/07/14 06:27:54;;;;;;;4.25;1.83;;;;;;;22.25;nan;99904.41;5016373;28;20034;-78
2021/07/14 06:30:19;;;;;;;4.53;1.73;;;;;;;22.38;nan;99896.41;5015910;28;20033;-79
2021/07/14 06:32:51;;;;;;;4.85;1.83;;;;;;;22.43;nan;99890.75;5015461;28;20041;-79
2021/07/14 06:35:16;;;;;;;4.40;1.50;;;;;;;22.44;nan;99884.41;5016435;28;20061;-80
2021/07/14 06:37:42;;;;;;;8.82;2.97;;;;;;;22.48;nan;99884.09;4997741;28;20042;-80
2021/07/14 06:40:10;;;;;;;6.82;3.72;;;;;;;22.73;nan;99883.31;4998715;28;20057;-79
2021/07/14 06:42:36;;;;;;;5.40;2.97;;;;;;;22.95;nan;99881.88;4981356;28;20084;-80
2021/07/14 06:45:03;;;;;;;4.82;1.70;;;;;;;22.86;nan;99877.13;5016261;28;20086;-80
2021/07/14 06:47:28;;;;;;;3.47;1.90;;;;;;;22.69;nan;99857.59;5014952;28;20039;-79
2021/07/14 06:49:54;;;;;;;4.03;1.40;;;;;;;22.60;nan;99873.47;5016507;28;20057;-80
2021/07/14 06:52:19;;;;;;;3.65;1.80;;;;;;;22.57;nan;99879.06;5007340;28;20034;-80
2021/07/14 06:54:44;;;;;;;4.47;2.08;;;;;;;22.58;nan;99908.53;5006818;28;20069;-78
2021/07/14 06:57:10;;;;;;;6.07;3.08;;;;;;;22.59;nan;99918.34;5012893;28;20120;-79
2021/07/14 06:59:35;;;;;;;4.07;2.05;;;;;;;22.68;nan;99925.78;4977100;28;20043;-79
2021/07/14 07:02:03;;;;;;;5.32;2.33;;;;;;;22.84;nan;99947.16;5015233;28;20038;-79
2021/07/14 07:04:29;;;;;;;6.82;2.45;;;;;;;22.95;nan;99955.41;4997433;28;20038;-79
2021/07/14 07:06:54;;;;;;;4.47;2.10;;;;;;;22.89;nan;99961.16;4998827;28;20045;-79
2021/07/14 07:09:20;;;;;;;4.40;2.13;;;;;;;22.94;nan;99959.03;5014978;28;20045;-80
2021/07/14 07:11:45;;;;;;;7.30;2.67;;;;;;;23.01;nan;99970.31;5015319;28;20565;-80
2021/07/14 07:14:11;;;;;;;5.43;2.35;;;;;;;23.04;nan;99983.56;5014623;28;20053;-79
2021/07/14 07:16:36;;;;;;;4.05;2.28;;;;;;;23.15;nan;99981.00;4997311;28;21790;-80
2021/07/14 07:19:02;;;;;;;5.80;2.10;;;;;;;23.13;nan;99968.59;4997280;28;20345;-80
2021/07/14 07:21:27;;;;;;;3.25;1.90;;;;;;;23.36;nan;99978.69;4997849;28;20121;-79
2021/07/14 07:23:53;;;;;;;5.03;2.10;;;;;;;23.45;nan;99996.06;4998929;28;20029;-80
2021/07/14 07:26:18;;;;;;;3.00;1.70;;;;;;;23.57;nan;100005.97;5012996;28;20120;-80
2021/07/14 07:28:43;;;;;;;3.20;1.60;;;;;;;23.47;nan;100004.88;5016175;28;20037;-79
2021/07/14 07:31:10;;;;;;;4.18;1.88;;;;;;;23.42;nan;100004.31;5013229;28;20033;-80
2021/07/14 07:33:37;;;;;;;2.83;1.25;;;;;;;23.22;nan;100010.22;5009645;28;20073;-79
2021/07/14 07:36:04;;;;;;;3.58;1.52;;;;;;;23.43;nan;99997.13;5009602;28;20038;-80
2021/07/14 07:38:30;;;;;;;2.60;1.30;;;;;;;23.58;nan;99996.94;5017663;28;20065;-80
2021/07/14 07:40:57;;;;;;;4.18;2.38;;;;;;;23.68;nan;100005.22;4996703;28;20038;-79
2021/07/14 07:43:24;;;;;;;4.68;1.77;;;;;;;23.71;nan;99996.06;4977833;28;20038;-80
2021/07/14 07:45:49;;;;;;;3.63;1.60;;;;;;;23.79;nan;100004.56;4999731;28;20068;-80
2021/07/14 07:48:14;;;;;;;2.45;1.33;;;;;;;23.94;nan;99992.66;5014420;28;20133;-80
2021/07/14 07:50:40;;;;;;;3.72;1.50;;;;;;;23.74;nan;99990.53;5016282;28;20068;-80
2021/07/14 07:53:05;;;;;;;2.45;1.40;;;;;;;24.03;nan;99989.34;5015217;28;20067;-80
2021/07/14 07:55:30;;;;;;;4.22;1.83;;;;;;;24.17;nan;99995.59;5013040;28;20042;-80
2021/07/14 07:57:56;;;;;;;5.68;1.92;;;;;;;24.08;nan;99982.75;5021683;28;20037;-80
2021/07/14 08:00:21;;;;;;;4.97;1.60;;;;;;;24.21;nan;99983.63;5013349;28;20034;-80
2021/07/14 08:02:47;;;;;;;4.40;1.88;;;;;;;24.16;nan;99996.56;5013613;28;20387;-80
2021/07/14 08:05:12;;;;;;;5.20;2.10;;;;;;;23.98;nan;99993.34;4979403;28;20030;-78
2021/07/14 08:07:38;;;;;;;4.68;1.95;;;;;;;23.90;nan;99991.19;5006493;28;20097;-81
2021/07/14 08:10:05;;;;;;;3.78;1.80;;;;;;;23.72;nan;99970.91;4989506;28;20034;-78
2021/07/14 08:12:31;;;;;;;6.55;1.80;;;;;;;23.61;nan;99959.00;5013211;28;20030;-80
2021/07/14 08:14:56;;;;;;;5.15;1.95;;;;;;;23.69;nan;99952.25;5014866;28;20042;-79
2021/07/14 08:17:21;;;;;;;5.10;1.98;;;;;;;23.48;nan;99958.16;5012869;28;20046;-80
2021/07/14 08:19:48;;;;;;;3.42;1.60;;;;;;;23.48;nan;99960.84;5012044;28;20133;-79
2021/07/14 08:22:14;;;;;;;7.18;1.80;;;;;;;23.35;nan;99954.56;5016518;28;20113;-80
2021/07/14 08:24:39;;;;;;;4.32;1.58;;;;;;;23.28;nan;99967.56;5013235;28;20034;-80
2021/07/14 08:27:05;;;;;;;5.25;2.42;;;;;;;23.27;nan;99955.09;5015439;28;20049;-82
2021/07/14 08:29:30;;;;;;;4.22;1.65;;;;;;;23.31;nan;99955.72;5014503;28;20069;-82
2021/07/14 08:31:55;;;;;;;4.70;2.33;;;;;;;23.38;nan;99962.44;5015130;28;20065;-82
2021/07/14 08:34:21;;;;;;;4.90;1.90;;;;;;;23.52;nan;99974.94;5014854;28;20048;-80
2021/07/14 08:36:46;;;;;;;4.53;1.60;;;;;;;23.66;nan;99987.44;5011466;28;20030;-80
2021/07/14 08:39:13;;;;;;;2.33;1.33;;;;;;;23.83;nan;99989.88;5015034;28;20041;-80
2021/07/14 08:41:41;;;;;;;4.75;1.88;;;;;;;24.02;nan;100003.78;5018489;28;20523;-80
2021/07/14 08:44:06;;;;;;;4.35;2.60;;;;;;;24.40;nan;100010.13;5013224;28;20049;-80
2021/07/14 08:46:34;;;;;;;4.05;2.10;;;;;;;24.74;nan;100005.88;5017945;28;20041;-80
2021/07/14 08:49:03;;;;;;;2.67;1.73;;;;;;;24.89;nan;100014.69;4979459;28;20042;-80
2021/07/14 08:51:32;;;;;;;3.53;1.48;;;;;;;25.26;nan;100001.16;4999603;28;20034;-80
2021/07/14 08:53:58;;;;;;;3.42;1.60;;;;;;;25.68;nan;99999.69;4997087;28;20034;-80
2021/07/14 08:56:24;;;;;;;2.15;1.40;;;;;;;25.94;nan;99999.53;5018191;28;20048;-79
2021/07/14 08:58:49;;;;;;;3.35;1.70;;;;;;;26.12;nan;99991.78;5023078;28;20041;-80
2021/07/14 09:01:14;;;;;;;3.85;1.67;;;;;;;26.08;nan;99991.19;4979846;28;20039;-80
2021/07/14 09:03:40;;;;;;;2.17;1.40;;;;;;;26.00;nan;99993.63;5017070;28;20045;-80
2021/07/14 09:06:07;;;;;;;4.65;2.05;;;;;;;25.79;nan;99991.59;4982363;28;20133;-80
2021/07/14 09:08:32;;;;;;;2.97;1.60;;;;;;;25.87;nan;99984.78;5014268;28;20041;-80
2021/07/14 09:10:57;;;;;;;2.58;1.10;;;;;;;25.82;nan;99978.81;5017306;28;20160;-80
2021/07/14 09:13:34;;;;;;;3.53;1.50;;;;;;;25.84;nan;99982.28;5012197;28;20077;-80
2021/07/14 09:16:00;;;;;;;3.25;1.60;;;;;;;26.06;nan;99976.06;5009432;28;20042;-80
2021/07/14 09:18:28;;;;;;;1.92;1.23;;;;;;;26.20;nan;99973.13;4998824;28;20034;-80
2021/07/14 09:20:53;;;;;;;3.47;1.50;;;;;;;26.13;nan;99994.38;4979129;28;20061;-80
2021/07/14 09:23:21;;;;;;;4.35;1.50;;;;;;;26.18;nan;99978.66;4999064;28;20034;-80
2021/07/14 09:25:59;;;;;;;2.55;1.50;;;;;;;26.28;nan;99980.59;5008723;28;20034;-80
2021/07/14 09:28:32;;;;;;;2.15;1.50;;;;;;;26.48;nan;99979.00;5010810;28;20030;-81
2021/07/14 09:31:03;;;;;;;2.45;1.40;;;;;;;26.90;nan;99988.16;5005946;28;20404;-80
2021/07/14 09:33:30;;;;;;;3.85;1.80;;;;;;;27.10;nan;99989.22;5001714;28;20058;-80
2021/07/14 09:35:58;;;;;;;3.13;1.83;;;;;;;27.30;nan;99992.97;5012338;28;20489;-81
2021/07/14 09:38:23;;;;;;;3.63;2.15;;;;;;;27.53;nan;99997.28;4976687;28;20050;-80
2021/07/14 09:40:52;;;;;;;5.45;3.15;;;;;;;27.67;nan;99997.97;5015613;28;20038;-80
2021/07/14 09:43:35;;;;;;;3.58;2.10;;;;;;;27.75;nan;99990.03;5019128;28;20026;-80
2021/07/14 09:46:03;;;;;;;4.10;2.03;;;;;;;27.87;nan;99975.44;5016692;28;20269;-79
2021/07/14 09:48:40;;;;;;;5.18;1.95;;;;;;;28.18;nan;99986.31;5000393;28;20045;-79
2021/07/14 09:51:09;;;;;;;3.72;1.50;;;;;;;28.26;nan;99977.47;4980988;28;20093;-80
2021/07/14 09:53:35;;;;;;;2.75;1.95;;;;;;;28.37;nan;99959.25;5014826;28;20377;-80
2021/07/14 09:56:11;;;;;;;6.28;1.70;;;;;;;28.37;nan;99944.81;4983252;28;20042;-79
2021/07/14 09:58:36;;;;;;;4.25;2.63;;;;;;;28.65;nan;99934.22;4999810;28;20084;-81
2021/07/14 10:01:06;;;;;;;4.10;2.15;;;;;;;28.65;nan;99935.06;4984321;28;20026;-83
2021/07/14 10:03:33;;;;;;;3.20;2.50;;;;;;;28.87;nan;99927.66;5018618;28;20034;-80
2021/07/14 10:06:24;;;;;;;6.78;2.95;;;;;;;29.28;nan;99932.81;5016820;28;20034;-80
2021/07/14 10:09:02;;;;;;;3.22;1.85;;;;;;;28.90;nan;99927.38;4977926;28;20038;-81
2021/07/14 10:11:29;;;;;;;3.90;1.92;;;;;;;29.02;nan;99921.66;5016416;28;20527;-81
2021/07/14 10:14:06;;;;;;;4.35;1.70;;;;;;;29.16;nan;99916.81;5001351;28;20025;-82
2021/07/14 10:16:37;;;;;;;4.72;2.70;;;;;;;29.36;nan;99926.66;5007719;28;20092;-81
2021/07/14 10:19:13;;;;;;;4.22;2.28;;;;;;;29.38;nan;99907.50;4965754;28;20180;-81
2021/07/14 10:21:42;;;;;;;5.88;2.35;;;;;;;29.40;nan;99919.97;4999596;28;20049;-81
2021/07/14 10:24:10;;;;;;;5.38;2.50;;;;;;;29.17;nan;99905.81;4988824;28;20042;-80
2021/07/14 10:26:39;;;;;;;4.90;3.83;;;;;;;29.25;nan;99905.94;5015663;28;20045;-82
2021/07/14 10:29:06;;;;;;;8.30;7.50;;;;;;;28.89;nan;99941.97;4980351;28;20042;-81
2021/07/14 10:31:33;;;;;;;3.63;2.53;;;;;;;28.62;nan;99935.34;5015120;28;20038;-81
2021/07/14 10:33:59;;;;;;;5.88;2.88;;;;;;;28.14;nan;99941.47;5016355;28;20038;-81
2021/07/14 10:36:27;;;;;;;3.72;2.50;;;;;;;27.96;nan;99928.53;5014896;28;20089;-81
2021/07/14 10:38:55;;;;;;;3.95;2.20;;;;;;;27.94;nan;99930.50;5016414;28;20508;-81
2021/07/14 10:41:21;;;;;;;3.17;2.30;;;;;;;27.88;nan;99938.34;5021255;28;20136;-82
2021/07/14 10:43:49;;;;;;;4.88;3.85;;;;;;;27.50;nan;99945.22;5017445;28;20042;-82
2021/07/14 10:46:15;;;;;;;5.10;3.22;;;;;;;27.33;nan;99949.38;4996475;28;20091;-81
2021/07/14 10:48:42;;;;;;;4.15;2.80;;;;;;;26.97;nan;99967.72;5017028;28;20069;-81
2021/07/14 10:51:07;;;;;;;4.43;2.78;;;;;;;26.79;nan;99963.84;5016144;28;20053;-81
2021/07/14 10:53:34;;;;;;;6.20;4.80;;;;;;;26.72;nan;99957.19;5013642;28;20037;-82
2021/07/14 10:56:01;;;;;;;4.80;3.60;;;;;;;26.64;nan;99953.28;5009999;28;20042;-80
2021/07/14 10:58:29;;;;;;;4.43;3.03;;;;;;;26.52;nan;99943.47;5012798;28;20051;-79
2021/07/14 11:00:55;;;;;;;5.63;3.70;;;;;;;26.40;nan;99945.28;4982618;28;20034;-81
2021/07/14 11:03:33;;;;;;;4.88;2.80;;;;;;;26.20;nan;99946.94;5003375;28;20114;-81
2021/07/14 11:05:59;;;;;;;4.80;3.00;;;;;;;26.13;nan;99953.81;5005574;28;20042;-81
2021/07/14 11:08:48;;;;;;;5.40;3.05;;;;;;;26.04;nan;99981.56;5022618;28;20069;-81
2021/07/14 11:11:16;;;;;;;5.25;3.10;;;;;;;25.94;nan;99988.72;4981151;28;20033;-81
2021/07/14 11:13:44;;;;;;;4.63;2.83;;;;;;;25.89;nan;99980.09;5023234;28;20085;-81
2021/07/14 11:16:32;;;;;;;4.13;2.83;;;;;;;25.69;nan;99992.44;5018865;28;20098;-81
2021/07/14 11:19:08;;;;;;;5.28;2.30;;;;;;;25.71;nan;99988.63;5017667;28;20044;-81
2021/07/14 11:21:57;;;;;;;5.57;3.33;;;;;;;25.51;nan;99997.41;5014666;28;20046;-81
2021/07/14 11:24:49;;;;;;;4.72;3.22;;;;;;;25.27;nan;100001.00;4978718;28;20062;-81
2021/07/14 11:27:27;;;;;;;8.93;4.82;;;;;;;25.14;nan;100006.44;5019874;28;20053;-81
2021/07/14 11:30:16;;;;;;;3.65;2.67;;;;;;;24.94;nan;100001.66;4980171;28;20430;-81
2021/07/14 11:32:42;;;;;;;5.53;3.47;;;;;;;24.75;nan;99999.47;5001814;28;20038;-81
2021/07/14 11:35:16;;;;;;;4.50;3.30;;;;;;;24.72;nan;99994.31;4997832;28;20053;-80
2021/07/14 11:37:56;;;;;;;7.95;3.17;;;;;;;24.64;nan;99994.88;5012216;28;20457;-81
2021/07/14 11:40:24;;;;;;;4.70;3.25;;;;;;;24.64;nan;99997.56;5018686;28;20065;-80
2021/07/14 11:43:01;;;;;;;4.40;3.30;;;;;;;24.53;nan;99992.09;5022551;28;20030;-81
2021/07/14 11:45:32;;;;;;;4.25;3.00;;;;;;;24.59;nan;99996.19;5002188;28;20033;-81
2021/07/14 11:48:13;;;;;;;3.10;2.20;;;;;;;24.83;nan;99985.41;5016770;28;20042;-81
2021/07/14 11:50:47;;;;;;;6.00;3.00;;;;;;;25.00;nan;99997.69;5015045;28;20049;-80
2021/07/14 11:53:31;;;;;;;4.35;2.83;;;;;;;25.19;nan;100007.97;4999302;28;20038;-81
2021/07/14 11:56:05;;;;;;;5.68;2.60;;;;;;;25.16;nan;100003.66;4995593;28;20031;-81
2021/07/14 11:58:52;;;;;;;4.70;2.78;;;;;;;25.61;nan;100003.84;5016864;28;20061;-80
2021/07/14 12:01:17;;;;;;;3.58;2.63;;;;;;;26.27;nan;100001.38;5011349;28;20045;-80
2021/07/14 12:04:02;;;;;;;5.07;2.75;;;;;;;27.03;nan;99991.56;4994726;28;20043;-81